Time;durP1;ratioP1;P1;durP2;ratioP2;P2;SDS_P1;SDS_P2;PMS_P1;PMS_P2;Temp;Humidity;BMP_temperature;BMP_pressure;BME280_temperature;BME280_humidity;BME280_pressure;Samples;Min_cycle;Max_cycle;Signal;HPM_P1;HPM_P2
2022/04/23 00:00:43;;;;;;;19.60;13.90;;;;;;;9.10;88.79;99618.25;4659291;30;20046;-78
2022/04/23 00:03:09;;;;;;;19.48;14.20;;;;;;;8.76;88.88;99575.78;4652987;30;20043;-78
2022/04/23 00:05:34;;;;;;;19.92;13.90;;;;;;;8.87;89.85;99615.78;4641615;30;20063;-78
2022/04/23 00:08:01;;;;;;;17.20;13.40;;;;;;;9.14;89.59;99616.50;4644484;30;20073;-78
2022/04/23 00:10:28;;;;;;;19.02;13.70;;;;;;;9.15;88.62;99579.84;4641678;30;20055;-79
2022/04/23 00:12:54;;;;;;;15.27;13.00;;;;;;;9.38;88.29;99574.41;4658381;30;20085;-79
2022/04/23 00:15:25;;;;;;;18.02;14.60;;;;;;;9.64;87.78;99602.13;4663068;30;20042;-79
2022/04/23 00:17:51;;;;;;;22.35;15.43;;;;;;;9.35;87.77;99612.84;4652498;30;20038;-79
2022/04/23 00:20:19;;;;;;;21.85;14.57;;;;;;;8.77;88.89;99593.19;4652987;30;20068;-78
2022/04/23 00:22:48;;;;;;;20.15;14.02;;;;;;;8.75;89.21;99564.41;4647300;30;20051;-78
2022/04/23 00:25:16;;;;;;;19.45;14.23;;;;;;;8.91;89.52;99611.41;4646570;30;20047;-80
2022/04/23 00:27:41;;;;;;;17.33;15.40;;;;;;;8.70;89.55;99576.66;4643964;30;20184;-79
2022/04/23 00:30:10;;;;;;;23.13;15.07;;;;;;;8.53;89.24;99554.97;4647852;30;20039;-80
2022/04/23 00:32:36;;;;;;;25.10;14.80;;;;;;;8.74;89.82;99580.13;4643046;30;20165;-79
2022/04/23 00:35:01;;;;;;;19.92;16.73;;;;;;;8.83;89.43;99599.25;4629147;30;20163;-78
2022/04/23 00:37:27;;;;;;;23.80;16.55;;;;;;;8.62;89.56;99574.09;4629836;30;20501;-80
2022/04/23 00:39:53;;;;;;;26.70;16.67;;;;;;;8.49;89.87;99563.72;4630603;30;20175;-78
2022/04/23 00:42:20;;;;;;;19.15;16.60;;;;;;;8.63;90.12;99604.59;4651266;30;20050;-78
2022/04/23 00:44:46;;;;;;;18.38;15.43;;;;;;;8.52;90.61;99584.59;4658170;30;20065;-78
2022/04/23 00:47:12;;;;;;;24.02;17.05;;;;;;;8.86;88.51;99577.44;4653614;30;20067;-77
2022/04/23 00:49:37;;;;;;;23.27;16.75;;;;;;;8.81;88.44;99606.25;4646899;30;20064;-78
2022/04/23 00:52:05;;;;;;;21.83;15.88;;;;;;;8.22;89.54;99555.97;4669859;30;20065;-77
2022/04/23 00:54:33;;;;;;;23.60;17.55;;;;;;;8.28;91.08;99602.09;4662182;30;20125;-77
2022/04/23 00:57:00;;;;;;;24.33;18.63;;;;;;;7.98;91.23;99561.28;4661655;30;20093;-77
2022/04/23 00:59:28;;;;;;;22.25;18.02;;;;;;;8.02;91.22;99579.53;4650418;30;20054;-77
2022/04/23 01:01:56;;;;;;;23.05;17.30;;;;;;;8.28;90.88;99586.41;4663200;30;20128;-77
2022/04/23 01:04:22;;;;;;;22.67;16.98;;;;;;;8.39;91.30;99586.38;4678576;30;20063;-79
2022/04/23 01:06:48;;;;;;;33.30;16.73;;;;;;;8.53;90.49;99588.97;4679565;30;20049;-79
2022/04/23 01:09:14;;;;;;;24.70;16.50;;;;;;;8.58;89.87;99587.19;4665484;30;20053;-78
2022/04/23 01:11:39;;;;;;;27.38;17.85;;;;;;;8.57;89.55;99568.03;4648881;30;20149;-77
2022/04/23 01:14:06;;;;;;;26.90;18.65;;;;;;;8.72;89.35;99582.75;4680147;30;20046;-79
2022/04/23 01:16:32;;;;;;;28.10;18.42;;;;;;;8.42;90.18;99587.25;4676219;30;20047;-77
2022/04/23 01:18:58;;;;;;;27.10;17.55;;;;;;;8.15;90.79;99572.56;4662957;30;20512;-77
2022/04/23 01:21:24;;;;;;;24.77;17.73;;;;;;;8.08;90.90;99567.31;4675436;30;20116;-79
2022/04/23 01:23:53;;;;;;;21.35;19.13;;;;;;;8.51;90.82;99583.75;4680814;30;20215;-77
2022/04/23 01:26:26;;;;;;;26.50;16.00;;;;;;;8.08;90.59;99536.88;4663251;30;20147;-78
2022/04/23 01:28:52;;;;;;;26.92;18.40;;;;;;;8.19;91.12;99589.06;4673699;30;20474;-77
2022/04/23 01:31:17;;;;;;;20.85;16.80;;;;;;;8.57;90.18;99575.88;4660669;30;20046;-80
2022/04/23 01:33:43;;;;;;;26.50;17.58;;;;;;;8.29;90.05;99564.66;4659652;30;20499;-78
2022/04/23 01:36:09;;;;;;;23.17;17.88;;;;;;;8.33;89.21;99544.59;4660823;30;20050;-79
2022/04/23 01:38:35;;;;;;;26.08;17.77;;;;;;;8.47;88.70;99561.09;4690519;30;20076;-80
2022/04/23 01:41:01;;;;;;;25.45;17.23;;;;;;;8.30;89.48;99597.75;4665704;30;20096;-78
2022/04/23 01:43:28;;;;;;;21.20;17.15;;;;;;;8.24;90.58;99585.59;4671840;30;20062;-82
2022/04/23 01:45:54;;;;;;;21.77;17.58;;;;;;;8.39;89.33;99581.16;4664257;30;20082;-78
2022/04/23 01:48:21;;;;;;;22.45;17.60;;;;;;;8.42;89.77;99597.72;4669119;30;20087;-81
2022/04/23 01:50:47;;;;;;;23.35;17.15;;;;;;;8.38;89.66;99582.03;4647985;30;20039;-80
2022/04/23 01:53:13;;;;;;;22.10;18.02;;;;;;;8.12;89.87;99553.38;4655954;30;20512;-78
2022/04/23 01:55:39;;;;;;;21.35;17.70;;;;;;;8.41;89.22;99582.91;4647520;30;20051;-78
2022/04/23 01:58:05;;;;;;;25.80;18.52;;;;;;;8.01;90.15;99556.06;4641687;30;20165;-77
2022/04/23 02:00:32;;;;;;;25.35;18.27;;;;;;;8.13;90.24;99589.97;4632351;30;20184;-77
2022/04/23 02:02:58;;;;;;;26.17;19.42;;;;;;;8.14;90.41;99577.78;4630184;30;20046;-78
2022/04/23 02:05:24;;;;;;;27.80;18.15;;;;;;;7.70;90.56;99547.41;4631090;30;20055;-79
2022/04/23 02:07:50;;;;;;;26.42;18.35;;;;;;;7.78;90.95;99550.91;4642927;30;20065;-78
2022/04/23 02:10:16;;;;;;;22.65;18.48;;;;;;;7.79;90.84;99553.47;4647499;30;20509;-79
2022/04/23 02:12:47;;;;;;;23.33;18.42;;;;;;;7.97;90.85;99580.44;4644894;30;20059;-79
2022/04/23 02:15:16;;;;;;;30.67;18.58;;;;;;;7.78;91.53;99579.63;4630581;30;20051;-78
2022/04/23 02:17:44;;;;;;;21.92;19.05;;;;;;;7.69;91.39;99533.50;4647859;30;20073;-80
2022/04/23 02:20:12;;;;;;;23.13;18.85;;;;;;;7.96;91.42;99579.59;4664745;30;20082;-78
2022/04/23 02:22:38;;;;;;;26.23;19.20;;;;;;;7.72;90.33;99532.63;4663539;30;20152;-79
2022/04/23 02:25:05;;;;;;;27.88;20.38;;;;;;;7.75;89.82;99541.34;4669179;30;20044;-79
2022/04/23 02:27:45;;;;;;;24.27;21.38;;;;;;;7.52;90.12;99533.56;4653443;30;20487;-79
2022/04/23 02:30:13;;;;;;;24.02;19.23;;;;;;;7.61;91.52;99575.31;4648560;30;20062;-79
2022/04/23 02:32:40;;;;;;;24.00;18.63;;;;;;;7.85;91.07;99576.13;4644984;30;20097;-79
2022/04/23 02:35:08;;;;;;;23.95;18.27;;;;;;;7.70;90.68;99570.91;4645788;30;20059;-78
2022/04/23 02:37:36;;;;;;;28.10;22.10;;;;;;;7.61;90.86;99564.00;4651669;30;20055;-78
2022/04/23 02:40:07;;;;;;;22.92;19.33;;;;;;;7.79;91.14;99574.38;4627247;30;20051;-79
2022/04/23 02:42:40;;;;;;;27.55;21.80;;;;;;;7.48;91.01;99539.63;4663424;30;20042;-79
2022/04/23 02:45:08;;;;;;;23.30;19.45;;;;;;;7.97;90.56;99572.59;4653384;30;20066;-78
2022/04/23 02:47:48;;;;;;;23.58;19.55;;;;;;;7.99;89.97;99581.31;4656530;30;20066;-79
2022/04/23 02:50:15;;;;;;;22.63;17.90;;;;;;;7.81;89.80;99577.84;4680496;30;20109;-79
2022/04/23 02:52:42;;;;;;;24.58;20.05;;;;;;;7.48;91.00;99551.81;4681526;30;20141;-78
2022/04/23 02:55:09;;;;;;;23.92;18.10;;;;;;;7.24;91.75;99540.53;4648266;30;20259;-78
2022/04/23 02:57:38;;;;;;;24.63;20.40;;;;;;;7.29;91.79;99536.19;4670737;30;20498;-78
2022/04/23 03:00:06;;;;;;;25.17;21.00;;;;;;;7.81;90.82;99582.22;4666769;30;20044;-78
2022/04/23 03:02:36;;;;;;;25.75;21.50;;;;;;;7.51;91.26;99537.00;4665404;30;20050;-79
2022/04/23 03:05:14;;;;;;;23.58;17.83;;;;;;;7.53;91.07;99558.75;4685464;30;20058;-78
2022/04/23 03:07:40;;;;;;;24.90;20.05;;;;;;;7.56;91.68;99565.72;4665156;30;20112;-79
2022/04/23 03:10:10;;;;;;;26.13;19.98;;;;;;;7.51;91.57;99560.50;4661082;30;20474;-78
2022/04/23 03:12:38;;;;;;;25.17;20.77;;;;;;;7.46;92.18;99567.47;4674095;30;20041;-78
2022/04/23 03:15:09;;;;;;;29.85;21.85;;;;;;;7.36;91.98;99531.84;4682475;30;20033;-78
2022/04/23 03:17:36;;;;;;;25.80;21.17;;;;;;;7.16;92.24;99534.44;4658820;30;20094;-77
2022/04/23 03:20:02;;;;;;;25.83;19.90;;;;;;;7.45;92.45;99577.94;4648492;30;20117;-78
2022/04/23 03:22:28;;;;;;;22.83;20.38;;;;;;;7.23;92.98;99577.06;4648024;30;20062;-78
2022/04/23 03:24:53;;;;;;;28.48;21.20;;;;;;;7.29;92.95;99575.31;4676792;30;20078;-79
2022/04/23 03:27:19;;;;;;;26.38;20.17;;;;;;;7.05;93.13;99544.03;4665660;30;20041;-79
2022/04/23 03:29:45;;;;;;;27.42;18.92;;;;;;;7.23;93.00;99577.94;4682208;30;20129;-78
2022/04/23 03:32:10;;;;;;;25.17;19.42;;;;;;;7.22;92.49;99546.63;4667518;30;20058;-79
2022/04/23 03:34:37;;;;;;;28.67;20.45;;;;;;;7.61;92.38;99575.31;4665985;30;20569;-78
2022/04/23 03:37:05;;;;;;;24.63;19.13;;;;;;;7.31;92.31;99550.09;4664592;30;20117;-78
2022/04/23 03:39:35;;;;;;;26.45;18.58;;;;;;;7.37;92.03;99570.09;4680874;30;20125;-78
2022/04/23 03:42:03;;;;;;;24.98;20.35;;;;;;;7.56;92.09;99591.81;4691037;30;20491;-77
2022/04/23 03:44:31;;;;;;;26.77;20.00;;;;;;;7.53;91.74;99555.28;4664511;30;20188;-79
2022/04/23 03:46:58;;;;;;;23.55;17.05;;;;;;;7.63;90.66;99548.31;4679933;30;20054;-78
2022/04/23 03:49:24;;;;;;;23.60;18.20;;;;;;;7.55;91.21;99557.03;4660224;30;20066;-78
2022/04/23 03:51:51;;;;;;;40.13;21.58;;;;;;;7.81;90.16;99546.53;4647402;30;20055;-80
2022/04/23 03:54:17;;;;;;;23.20;20.30;;;;;;;8.04;89.91;99585.63;4645514;30;20042;-79
2022/04/23 03:56:44;;;;;;;27.95;20.95;;;;;;;8.05;88.96;99557.75;4656187;30;20505;-78
2022/04/23 03:59:13;;;;;;;21.85;18.73;;;;;;;8.12;88.01;99546.41;4674410;30;20144;-79
2022/04/23 04:01:40;;;;;;;24.58;21.92;;;;;;;8.18;87.67;99564.69;4678790;30;20042;-78
2022/04/23 04:04:06;;;;;;;22.45;18.67;;;;;;;8.34;88.02;99598.63;4663767;30;20099;-78
2022/04/23 04:06:33;;;;;;;22.73;18.75;;;;;;;8.25;88.50;99602.13;4662165;30;20065;-79
2022/04/23 04:08:59;;;;;;;22.10;18.60;;;;;;;7.92;89.40;99579.59;4659232;30;20479;-82
2022/04/23 04:11:25;;;;;;;28.63;21.02;;;;;;;8.22;88.25;99579.50;4658231;30;20071;-81
2022/04/23 04:13:52;;;;;;;27.30;19.65;;;;;;;8.19;88.15;99568.16;4660982;30;20076;-77
2022/04/23 04:16:18;;;;;;;26.25;19.58;;;;;;;8.50;87.20;99602.03;4661869;30;20058;-80
2022/04/23 04:18:46;;;;;;;27.67;19.92;;;;;;;8.70;87.44;99604.56;4658934;30;20054;-79
2022/04/23 04:21:16;;;;;;;26.15;19.92;;;;;;;8.61;87.37;99610.69;4663861;30;20035;-81
2022/04/23 04:23:42;;;;;;;27.05;20.33;;;;;;;8.45;87.43;99586.38;4661028;30;20132;-80
2022/04/23 04:26:09;;;;;;;21.75;19.27;;;;;;;8.64;87.28;99603.72;4662489;30;20046;-79
2022/04/23 04:28:35;;;;;;;26.85;21.38;;;;;;;8.66;86.98;99611.53;4660688;30;20065;-81
2022/04/23 04:33:45;;;;;;;31.17;19.50;;;;;;;8.76;86.22;99573.16;4656040;30;20527;-80
2022/04/23 04:36:11;;;;;;;26.73;20.50;;;;;;;8.88;85.71;99573.94;4645912;30;20043;-80
2022/04/23 04:38:37;;;;;;;24.42;20.92;;;;;;;9.13;85.54;99596.44;4669115;30;20069;-80
2022/04/23 04:41:05;;;;;;;24.02;20.00;;;;;;;9.02;85.30;99597.38;4658719;30;20149;-79
2022/04/23 04:43:31;;;;;;;30.58;21.23;;;;;;;8.76;85.85;99604.53;4661771;30;20058;-80
2022/04/23 04:45:57;;;;;;;26.13;21.00;;;;;;;8.36;87.79;99616.03;4653545;30;20059;-81
2022/04/23 04:48:24;;;;;;;32.88;20.33;;;;;;;8.17;87.84;99562.97;4657869;30;20261;-80
2022/04/23 04:50:50;;;;;;;24.63;19.17;;;;;;;8.20;87.69;99560.31;4644262;30;20071;-80
2022/04/23 04:53:16;;;;;;;26.38;17.10;;;;;;;8.14;87.98;99556.88;4645630;30;20089;-79
2022/04/23 04:55:42;;;;;;;25.05;20.10;;;;;;;8.42;88.19;99602.09;4659813;30;20136;-79
2022/04/23 04:58:08;;;;;;;23.48;20.80;;;;;;;8.44;87.59;99590.75;4661615;30;20049;-79
2022/04/23 05:00:35;;;;;;;22.77;19.15;;;;;;;8.31;87.26;99557.69;4661510;30;20035;-79
2022/04/23 05:03:16;;;;;;;23.48;18.85;;;;;;;8.52;87.42;99598.56;4662708;30;20039;-80
2022/04/23 05:05:52;;;;;;;27.45;22.08;;;;;;;8.63;87.38;99599.34;4648162;30;20069;-79
2022/04/23 05:08:18;;;;;;;24.60;19.77;;;;;;;8.60;86.50;99564.53;4658522;30;20218;-78
2022/04/23 05:10:51;;;;;;;25.98;19.50;;;;;;;8.94;86.29;99607.03;4661951;30;20141;-80
2022/04/23 05:13:16;;;;;;;22.63;19.42;;;;;;;8.71;86.58;99562.72;4663214;30;20054;-79
2022/04/23 05:15:44;;;;;;;25.83;20.30;;;;;;;9.15;86.11;99603.38;4661416;30;20480;-79
2022/04/23 05:18:11;;;;;;;22.77;20.35;;;;;;;9.18;84.94;99561.50;4665136;30;20039;-79
2022/04/23 05:20:37;;;;;;;21.83;18.73;;;;;;;9.55;83.77;99565.53;4663576;30;20050;-79
2022/04/23 05:23:03;;;;;;;23.30;20.65;;;;;;;9.83;82.32;99555.66;4656641;30;20061;-79
2022/04/23 05:25:28;;;;;;;25.23;19.13;;;;;;;10.30;81.16;99554.25;4662364;30;20046;-78
2022/04/23 05:27:54;;;;;;;27.40;20.77;;;;;;;10.14;81.58;99540.44;4661341;30;20081;-78
2022/04/23 05:30:20;;;;;;;24.48;19.83;;;;;;;10.55;80.51;99567.91;4663117;30;20114;-79
2022/04/23 05:32:45;;;;;;;27.23;18.90;;;;;;;10.55;80.16;99541.69;4654682;30;20112;-79
2022/04/23 05:35:13;;;;;;;29.25;18.23;;;;;;;11.29;78.08;99578.19;4655774;30;20557;-78
2022/04/23 05:37:42;;;;;;;23.38;18.08;;;;;;;11.03;79.04;99575.09;4664001;30;20051;-79
2022/04/23 05:40:08;;;;;;;27.17;19.65;;;;;;;10.69;79.73;99554.59;4662253;30;20512;-79
2022/04/23 05:42:36;;;;;;;22.73;18.67;;;;;;;11.06;79.57;99582.94;4658355;30;20066;-77
2022/04/23 05:45:02;;;;;;;23.67;19.70;;;;;;;11.05;79.72;99568.06;4646963;30;20053;-79
2022/04/23 05:47:30;;;;;;;24.40;20.70;;;;;;;10.72;79.45;99529.22;4666393;30;20074;-77
2022/04/23 05:49:58;;;;;;;26.15;19.88;;;;;;;11.27;78.28;99566.84;4678816;30;20122;-79
2022/04/23 05:52:27;;;;;;;21.58;18.08;;;;;;;11.36;78.88;99550.06;4680281;30;20054;-79
2022/04/23 05:54:59;;;;;;;31.52;18.42;;;;;;;11.22;78.33;99537.16;4656660;30;20058;-78
2022/04/23 05:57:25;;;;;;;24.83;18.13;;;;;;;11.59;77.91;99547.91;4665587;30;20096;-78
2022/04/23 05:59:52;;;;;;;23.80;18.70;;;;;;;12.21;76.04;99571.25;4682527;30;20038;-79
2022/04/23 06:02:18;;;;;;;25.77;21.23;;;;;;;11.92;76.79;99574.47;4680891;30;20122;-81
2022/04/23 06:04:48;;;;;;;22.52;19.73;;;;;;;11.76;75.92;99539.69;4670842;30;20078;-79
2022/04/23 06:07:16;;;;;;;22.38;16.13;;;;;;;11.85;77.01;99541.28;4664138;30;20076;-78
2022/04/23 06:09:52;;;;;;;22.02;19.08;;;;;;;12.28;74.42;99553.59;4665352;30;20085;-78
2022/04/23 06:12:22;;;;;;;23.45;19.55;;;;;;;12.08;76.17;99569.81;4679995;30;20049;-79
2022/04/23 06:14:51;;;;;;;21.70;19.02;;;;;;;11.94;76.68;99535.88;4665602;30;20046;-79
2022/04/23 06:17:24;;;;;;;21.23;17.55;;;;;;;12.08;74.99;99550.50;4682010;30;20050;-78
2022/04/23 06:19:53;;;;;;;19.00;16.42;;;;;;;12.17;76.20;99535.41;4675866;30;20081;-80
2022/04/23 06:22:23;;;;;;;22.67;18.58;;;;;;;12.11;74.97;99538.16;4677710;30;20058;-79
2022/04/23 06:24:50;;;;;;;19.85;16.98;;;;;;;12.55;73.13;99573.22;4661584;30;20093;-79
2022/04/23 06:27:22;;;;;;;24.27;19.23;;;;;;;12.71;72.78;99586.88;4669568;30;20035;-78
2022/04/23 06:29:50;;;;;;;21.30;17.60;;;;;;;12.35;72.12;99494.69;4657439;30;20053;-79
2022/04/23 06:32:16;;;;;;;18.70;16.60;;;;;;;12.85;73.16;99555.88;4666290;30;20511;-79
2022/04/23 06:34:42;;;;;;;27.63;18.15;;;;;;;13.33;73.17;99588.13;4683780;30;20050;-79
2022/04/23 06:37:09;;;;;;;25.60;17.70;;;;;;;12.95;71.39;99556.50;4660987;30;20802;-78
2022/04/23 06:39:41;;;;;;;25.13;17.42;;;;;;;13.34;70.94;99564.34;4670194;30;20066;-78
2022/04/23 06:42:08;;;;;;;24.60;16.33;;;;;;;13.50;70.49;99568.34;4670397;30;20542;-78
2022/04/23 06:44:37;;;;;;;24.73;17.58;;;;;;;13.12;69.52;99556.09;4657664;30;20062;-77
2022/04/23 06:47:03;;;;;;;20.67;17.90;;;;;;;13.45;70.94;99583.41;4668903;30;20338;-78
2022/04/23 06:49:35;;;;;;;26.30;16.73;;;;;;;13.65;71.65;99604.00;4678552;30;20073;-79
2022/04/23 06:52:01;;;;;;;22.00;15.30;;;;;;;13.72;71.02;99621.41;4665009;30;20088;-80
2022/04/23 06:54:29;;;;;;;24.40;18.40;;;;;;;13.54;71.93;99587.59;4666075;30;20042;-79
2022/04/23 06:56:56;;;;;;;20.50;16.20;;;;;;;13.58;70.25;99583.97;4675689;30;20065;-79
2022/04/23 06:59:26;;;;;;;28.52;16.20;;;;;;;13.87;69.63;99614.84;4682141;30;20065;-81
2022/04/23 07:01:52;;;;;;;24.70;17.13;;;;;;;13.93;69.96;99617.34;4641805;30;20058;-82
2022/04/23 07:04:17;;;;;;;25.45;18.35;;;;;;;14.00;69.81;99625.97;4663032;30;20160;-78
2022/04/23 07:06:43;;;;;;;20.65;17.48;;;;;;;14.19;69.36;99649.16;4668311;30;20108;-79
2022/04/23 07:09:09;;;;;;;23.50;16.75;;;;;;;14.05;69.46;99612.66;4677320;30;20037;-78
2022/04/23 07:11:34;;;;;;;20.40;15.68;;;;;;;14.30;68.85;99628.63;4680682;30;20065;-78
2022/04/23 07:14:00;;;;;;;22.73;14.57;;;;;;;14.04;69.35;99609.13;4657434;30;20083;-81
2022/04/23 07:16:26;;;;;;;17.33;13.38;;;;;;;14.18;68.98;99650.94;4681471;30;20144;-79
2022/04/23 07:18:55;;;;;;;20.30;16.42;;;;;;;14.09;68.69;99638.91;4684212;30;20066;-78
2022/04/23 07:21:24;;;;;;;21.98;17.75;;;;;;;14.37;67.93;99617.00;4679991;30;20062;-79
2022/04/23 07:24:05;;;;;;;24.83;16.27;;;;;;;14.57;67.33;99646.38;4684855;30;20118;-80
2022/04/23 07:26:59;;;;;;;21.30;16.40;;;;;;;14.54;67.08;99649.13;4676986;30;20058;-78
2022/04/23 07:29:42;;;;;;;20.20;16.40;;;;;;;14.16;67.12;99565.69;4692845;30;20062;-78
2022/04/23 07:32:21;;;;;;;30.92;16.88;;;;;;;14.78;67.27;99655.44;4683052;30;20081;-79
2022/04/23 07:38:03;;;;;;;19.33;17.05;;;;;;;14.72;66.72;99636.28;4662885;30;20085;-80
2022/04/23 07:40:59;;;;;;;24.23;17.48;;;;;;;15.06;65.92;99685.47;4658528;30;20050;-79
2022/04/23 07:43:27;;;;;;;18.92;15.65;;;;;;;15.26;66.09;99682.22;4647818;30;20164;-78
2022/04/23 07:45:53;;;;;;;21.80;17.58;;;;;;;15.34;65.64;99694.28;4667623;30;20062;-78
2022/04/23 07:48:20;;;;;;;21.00;15.73;;;;;;;15.47;66.16;99681.53;4660273;30;20051;-78
2022/04/23 07:51:03;;;;;;;17.30;14.50;;;;;;;15.54;67.29;99679.56;4675109;30;20502;-77
2022/04/23 07:53:30;;;;;;;25.05;14.60;;;;;;;15.75;65.95;99691.25;4671496;30;20133;-80
2022/04/23 07:56:11;;;;;;;18.20;13.40;;;;;;;15.83;65.63;99674.22;4661944;30;20066;-78
2022/04/23 07:58:42;;;;;;;22.33;13.25;;;;;;;15.79;65.34;99645.28;4678184;30;20064;-78
2022/04/23 08:01:10;;;;;;;15.48;12.40;;;;;;;15.84;65.74;99645.97;4668112;30;20057;-77
2022/04/23 08:03:39;;;;;;;14.73;12.27;;;;;;;16.20;65.58;99683.56;4677079;30;20047;-77
2022/04/23 08:06:04;;;;;;;25.13;14.48;;;;;;;16.38;65.92;99691.75;4664870;30;20503;-77
2022/04/23 08:08:35;;;;;;;16.38;14.43;;;;;;;16.39;66.31;99693.50;4685210;30;20174;-78
2022/04/23 08:11:06;;;;;;;25.13;15.77;;;;;;;16.46;66.45;99697.66;4661512;30;20546;-77
2022/04/23 08:13:36;;;;;;;21.38;13.35;;;;;;;16.20;65.85;99665.03;4667594;30;20053;-78
2022/04/23 08:16:07;;;;;;;18.67;14.05;;;;;;;16.31;65.38;99651.38;4681141;30;20077;-77
2022/04/23 08:18:34;;;;;;;20.15;13.35;;;;;;;16.50;64.63;99677.22;4685858;30;20132;-81
2022/04/23 08:21:01;;;;;;;13.45;10.45;;;;;;;16.71;63.93;99689.66;4664318;30;20044;-78
2022/04/23 08:23:33;;;;;;;14.63;11.07;;;;;;;16.72;64.19;99690.56;4673901;30;20054;-79
2022/04/23 08:26:03;;;;;;;16.17;11.13;;;;;;;16.68;64.82;99680.03;4663793;30;20085;-77
2022/04/23 08:31:15;;;;;;;13.50;10.45;;;;;;;16.83;64.30;99685.72;4674830;30;20373;-77
2022/04/23 08:34:00;;;;;;;12.57;10.77;;;;;;;16.79;65.54;99710.63;4678626;30;20495;-80
2022/04/23 08:36:36;;;;;;;21.67;14.27;;;;;;;16.68;65.59;99705.69;4685410;30;20061;-76
2022/04/23 08:39:06;;;;;;;17.52;11.27;;;;;;;16.53;64.91;99712.41;4674458;30;20434;-81
2022/04/23 08:41:34;;;;;;;17.35;12.80;;;;;;;16.39;65.83;99667.03;4673005;30;20128;-76
2022/04/23 08:44:05;;;;;;;15.70;12.20;;;;;;;16.87;65.12;99711.19;4662439;30;20072;-76
2022/04/23 08:46:39;;;;;;;32.05;14.80;;;;;;;16.87;64.88;99719.16;4627662;30;20164;-76
2022/04/23 08:49:18;;;;;;;20.98;11.38;;;;;;;16.65;65.49;99668.72;4630358;30;20090;-77
2022/04/23 08:52:04;;;;;;;16.80;12.48;;;;;;;17.11;65.25;99701.44;4639105;30;20138;-77
2022/04/23 08:54:30;;;;;;;14.88;10.60;;;;;;;17.08;64.78;99660.03;4637181;30;20074;-77
2022/04/23 08:56:56;;;;;;;15.68;11.13;;;;;;;17.33;64.07;99693.53;4634294;30;20043;-78
2022/04/23 08:59:22;;;;;;;12.70;9.82;;;;;;;17.37;64.45;99662.44;4638558;30;20161;-80
2022/04/23 09:01:49;;;;;;;18.27;12.70;;;;;;;17.45;64.58;99678.94;4649112;30;20508;-79
2022/04/23 09:04:16;;;;;;;18.60;11.82;;;;;;;17.37;65.02;99703.13;4653200;30;20051;-78
2022/04/23 09:06:44;;;;;;;13.27;11.77;;;;;;;17.32;64.87;99705.06;4639332;30;20054;-79
2022/04/23 09:09:21;;;;;;;21.33;11.25;;;;;;;17.40;65.80;99681.75;4632188;30;20049;-80
2022/04/23 09:12:00;;;;;;;16.55;10.65;;;;;;;17.39;66.32;99698.59;4642184;30;20071;-77
2022/04/23 09:14:28;;;;;;;17.08;11.23;;;;;;;17.40;65.76;99695.03;4606694;30;20054;-73
2022/04/23 09:25:15;;;;;;;17.27;11.52;;;;;;;17.72;65.12;99674.28;4635846;30;20078;-74
2022/04/23 09:27:43;;;;;;;15.88;10.55;;;;;;;18.03;64.03;99665.09;4652177;30;20556;-75
2022/04/23 09:30:12;;;;;;;12.85;9.23;;;;;;;18.83;63.69;99696.13;4640823;30;20451;-74
2022/04/23 09:32:54;;;;;;;14.35;9.50;;;;;;;18.67;62.68;99674.66;4642657;30;20063;-74
2022/04/23 09:35:22;;;;;;;9.23;4.70;;;;;;;19.28;56.41;99710.88;4623018;30;20051;-77
2022/04/23 09:40:32;;;;;;;3.63;1.15;;;;;;;19.23;50.30;99688.97;4638971;30;20141;-74
2022/04/23 09:43:05;;;;;;;4.95;1.75;;;;;;;19.23;49.32;99675.66;4647456;30;20137;-74
2022/04/23 09:45:32;;;;;;;4.68;2.22;;;;;;;19.36;50.45;99716.69;4636024;30;20048;-74
2022/04/23 09:48:17;;;;;;;8.05;1.85;;;;;;;18.45;49.53;99707.50;4634230;30;20533;-73
2022/04/23 09:50:47;;;;;;;9.77;2.25;;;;;;;18.75;49.82;99723.00;4653136;30;21088;-73
2022/04/23 09:53:18;;;;;;;4.13;1.58;;;;;;;18.25;50.81;99695.06;4667230;30;20092;-74
2022/04/23 09:55:45;;;;;;;4.78;2.15;;;;;;;18.30;50.91;99708.16;4650645;30;20070;-76
2022/04/23 09:58:12;;;;;;;7.07;2.50;;;;;;;19.03;50.52;99704.03;4657336;30;20077;-74
2022/04/23 10:00:43;;;;;;;5.55;2.03;;;;;;;19.21;50.99;99694.34;4655026;30;20571;-73
2022/04/23 10:03:10;;;;;;;5.43;2.67;;;;;;;19.42;50.15;99695.13;4667013;30;20521;-75
2022/04/23 10:05:47;;;;;;;6.18;3.25;;;;;;;19.60;53.63;99702.22;4667277;30;20059;-74
2022/04/23 10:08:17;;;;;;;5.00;2.97;;;;;;;19.85;51.02;99717.00;4655680;30;20050;-75
2022/04/23 10:11:14;;;;;;;9.73;1.92;;;;;;;19.51;48.83;99689.34;4650611;30;20054;-73
2022/04/23 10:13:44;;;;;;;4.57;1.95;;;;;;;19.45;50.00;99716.25;4649604;30;20054;-74
2022/04/23 10:16:11;;;;;;;8.57;2.53;;;;;;;19.56;50.63;99724.56;4654041;30;20091;-75
2022/04/23 10:18:42;;;;;;;5.10;2.63;;;;;;;19.66;51.50;99714.34;4656297;30;20042;-75
2022/04/23 10:21:10;;;;;;;9.52;4.45;;;;;;;20.07;49.96;99684.84;4653007;30;20039;-74
2022/04/23 10:23:54;;;;;;;5.85;3.17;;;;;;;19.75;54.32;99708.59;4646186;30;20114;-74
2022/04/23 10:26:46;;;;;;;8.23;2.95;;;;;;;18.72;53.03;99734.63;4643450;30;20062;-81
2022/04/23 10:29:14;;;;;;;6.97;2.88;;;;;;;18.32;54.22;99730.22;4648799;30;20050;-73
2022/04/23 10:31:41;;;;;;;7.30;3.22;;;;;;;18.56;54.67;99729.13;4671501;30;20062;-73
2022/04/23 10:34:31;;;;;;;6.50;3.38;;;;;;;18.28;57.11;99734.78;4669197;30;20066;-73
2022/04/23 10:37:27;;;;;;;10.80;4.70;;;;;;;17.22;60.00;99685.13;4651660;30;20149;-73
2022/04/23 10:39:57;;;;;;;8.70;4.07;;;;;;;17.69;61.41;99688.53;4659920;30;20058;-74
2022/04/23 10:42:28;;;;;;;5.22;3.13;;;;;;;17.29;61.23;99716.66;4663788;30;20571;-73
2022/04/23 10:44:57;;;;;;;13.70;4.18;;;;;;;16.79;64.43;99706.19;4655672;30;20074;-73
2022/04/23 10:47:39;;;;;;;8.18;4.40;;;;;;;16.56;66.15;99714.06;4656343;30;20093;-73
2022/04/23 10:50:25;;;;;;;9.95;5.07;;;;;;;16.72;64.19;99695.84;4668867;30;20069;-72
2022/04/23 10:52:55;;;;;;;10.60;4.13;;;;;;;16.88;63.58;99689.94;4676546;30;20062;-72
2022/04/23 10:55:24;;;;;;;10.52;4.50;;;;;;;16.64;64.30;99686.38;4667923;30;20054;-72
2022/04/23 10:57:51;;;;;;;6.20;3.65;;;;;;;16.75;63.63;99695.72;4670555;30;20067;-71
2022/04/23 11:00:31;;;;;;;13.77;4.97;;;;;;;17.03;63.84;99738.84;4673677;30;20113;-72
2022/04/23 11:03:16;;;;;;;8.20;4.40;;;;;;;17.08;64.57;99747.50;4650545;30;20046;-72
2022/04/23 11:14:41;;;;;;;9.63;5.50;;;;;;;16.96;64.71;99724.09;4670430;30;20430;-72
2022/04/23 11:17:21;;;;;;;6.32;3.95;;;;;;;16.95;63.91;99706.50;4676734;30;20057;-73
2022/04/23 11:19:54;;;;;;;16.60;5.88;;;;;;;16.81;64.46;99701.69;4652325;30;20076;-72
2022/04/23 11:22:21;;;;;;;12.85;4.57;;;;;;;17.22;63.47;99741.66;4655271;30;20070;-72
2022/04/23 11:24:49;;;;;;;13.57;5.72;;;;;;;17.20;62.49;99701.09;4673389;30;20100;-72
2022/04/23 11:27:29;;;;;;;16.05;7.80;;;;;;;17.63;61.95;99691.44;4661281;30;20073;-73
2022/04/23 11:29:56;;;;;;;11.38;5.45;;;;;;;18.27;62.30;99719.78;4672776;30;20050;-74
2022/04/23 11:32:27;;;;;;;16.08;6.28;;;;;;;17.43;60.43;99663.06;4656898;30;20058;-74
2022/04/23 11:35:06;;;;;;;12.10;6.47;;;;;;;17.51;61.15;99691.94;4665084;30;20145;-74
2022/04/23 11:37:37;;;;;;;6.97;3.92;;;;;;;17.87;60.21;99732.06;4663758;30;20062;-74
2022/04/23 11:40:13;;;;;;;7.38;4.43;;;;;;;17.69;60.79;99669.09;4675657;30;20050;-74
2022/04/23 11:42:41;;;;;;;19.08;8.23;;;;;;;18.02;60.58;99673.97;4658068;30;20046;-71
2022/04/23 11:45:09;;;;;;;14.48;5.60;;;;;;;17.67;61.51;99676.25;4675003;30;20473;-71
2022/04/23 11:47:35;;;;;;;10.00;4.50;;;;;;;17.60;62.25;99682.75;4668173;30;20175;-72
2022/04/23 11:50:24;;;;;;;8.88;4.47;;;;;;;17.41;62.07;99667.56;4671295;30;20086;-72
2022/04/23 11:53:05;;;;;;;11.15;4.68;;;;;;;17.55;64.73;99669.66;4656929;30;20122;-72
2022/04/23 11:55:32;;;;;;;10.15;4.82;;;;;;;17.85;62.89;99664.91;4653938;30;20183;-72
2022/04/23 11:58:00;;;;;;;15.02;6.82;;;;;;;17.51;62.98;99637.09;4671306;30;20069;-72
2022/04/23 12:00:27;;;;;;;9.63;5.15;;;;;;;17.67;63.45;99666.50;4672701;30;20085;-72
2022/04/23 12:02:54;;;;;;;11.60;5.32;;;;;;;18.17;61.91;99707.84;4674253;30;20042;-72